sensor_id;sensor_type;location;lat;lon;timestamp;temperature;humidity
11387;DHT22;5748;53.102;8.456;2023-04-03T00:00:24;6.10;41.30
11387;DHT22;5748;53.102;8.456;2023-04-03T00:02:51;6.10;40.30
11387;DHT22;5748;53.102;8.456;2023-04-03T00:05:20;6.00;40.30
11387;DHT22;5748;53.102;8.456;2023-04-03T00:07:47;6.00;40.40
11387;DHT22;5748;53.102;8.456;2023-04-03T00:10:15;6.00;41.10
11387;DHT22;5748;53.102;8.456;2023-04-03T00:12:43;6.40;40.90
11387;DHT22;5748;53.102;8.456;2023-04-03T00:15:10;5.90;40.50
11387;DHT22;5748;53.102;8.456;2023-04-03T00:17:38;6.70;41.40
11387;DHT22;5748;53.102;8.456;2023-04-03T00:20:06;5.80;40.80
11387;DHT22;5748;53.102;8.456;2023-04-03T00:22:35;5.80;40.90
11387;DHT22;5748;53.102;8.456;2023-04-03T00:25:02;5.70;40.90
11387;DHT22;5748;53.102;8.456;2023-04-03T00:27:29;5.70;41.30
11387;DHT22;5748;53.102;8.456;2023-04-03T00:30:06;5.70;41.10
11387;DHT22;5748;53.102;8.456;2023-04-03T00:32:35;5.60;41.60
11387;DHT22;5748;53.102;8.456;2023-04-03T00:35:03;5.70;41.10
11387;DHT22;5748;53.102;8.456;2023-04-03T00:37:30;5.60;41.30
11387;DHT22;5748;53.102;8.456;2023-04-03T00:39:59;5.50;41.10
11387;DHT22;5748;53.102;8.456;2023-04-03T00:42:26;5.50;41.20
11387;DHT22;5748;53.102;8.456;2023-04-03T00:48:21;5.40;42.00
11387;DHT22;5748;53.102;8.456;2023-04-03T00:50:50;5.40;41.10
11387;DHT22;5748;53.102;8.456;2023-04-03T00:53:22;7.20;42.70
11387;DHT22;5748;53.102;8.456;2023-04-03T00:55:53;5.30;41.30
11387;DHT22;5748;53.102;8.456;2023-04-03T00:58:24;5.30;41.30
11387;DHT22;5748;53.102;8.456;2023-04-03T01:00:55;6.00;41.80
11387;DHT22;5748;53.102;8.456;2023-04-03T01:03:24;5.20;41.50
11387;DHT22;5748;53.102;8.456;2023-04-03T01:06:05;5.20;41.50
11387;DHT22;5748;53.102;8.456;2023-04-03T01:08:32;5.10;42.00
11387;DHT22;5748;53.102;8.456;2023-04-03T01:11:01;5.60;41.80
11387;DHT22;5748;53.102;8.456;2023-04-03T01:13:30;5.10;41.50
11387;DHT22;5748;53.102;8.456;2023-04-03T01:16:01;5.00;41.90
11387;DHT22;5748;53.102;8.456;2023-04-03T01:18:28;5.00;41.80
11387;DHT22;5748;53.102;8.456;2023-04-03T01:24:32;4.90;42.60
11387;DHT22;5748;53.102;8.456;2023-04-03T01:27:11;4.90;42.10
11387;DHT22;5748;53.102;8.456;2023-04-03T01:29:39;4.90;42.10
11387;DHT22;5748;53.102;8.456;2023-04-03T01:32:07;5.00;42.00
11387;DHT22;5748;53.102;8.456;2023-04-03T01:34:35;6.20;42.80
11387;DHT22;5748;53.102;8.456;2023-04-03T01:37:02;5.00;41.80
11387;DHT22;5748;53.102;8.456;2023-04-03T01:39:29;4.80;41.90
11387;DHT22;5748;53.102;8.456;2023-04-03T01:41:56;5.00;42.20
11387;DHT22;5748;53.102;8.456;2023-04-03T01:44:24;4.70;42.20
11387;DHT22;5748;53.102;8.456;2023-04-03T01:46:58;4.70;42.10
11387;DHT22;5748;53.102;8.456;2023-04-03T01:49:26;4.70;42.30
11387;DHT22;5748;53.102;8.456;2023-04-03T01:51:53;4.70;42.30
11387;DHT22;5748;53.102;8.456;2023-04-03T01:54:21;5.40;42.60
11387;DHT22;5748;53.102;8.456;2023-04-03T01:56:48;6.20;43.40
11387;DHT22;5748;53.102;8.456;2023-04-03T01:59:15;4.60;42.20
11387;DHT22;5748;53.102;8.456;2023-04-03T02:01:43;4.60;42.30
11387;DHT22;5748;53.102;8.456;2023-04-03T02:04:11;4.60;42.20
11387;DHT22;5748;53.102;8.456;2023-04-03T02:06:41;4.60;42.40
11387;DHT22;5748;53.102;8.456;2023-04-03T02:09:08;4.60;42.50
11387;DHT22;5748;53.102;8.456;2023-04-03T02:11:35;5.50;43.10
11387;DHT22;5748;53.102;8.456;2023-04-03T02:14:02;4.50;42.40
11387;DHT22;5748;53.102;8.456;2023-04-03T02:16:30;6.40;43.90
11387;DHT22;5748;53.102;8.456;2023-04-03T02:18:57;7.40;44.90
11387;DHT22;5748;53.102;8.456;2023-04-03T02:21:24;6.50;44.20
11387;DHT22;5748;53.102;8.456;2023-04-03T02:23:52;4.50;42.50
11387;DHT22;5748;53.102;8.456;2023-04-03T02:26:42;4.40;42.40
11387;DHT22;5748;53.102;8.456;2023-04-03T02:29:09;4.40;43.30
11387;DHT22;5748;53.102;8.456;2023-04-03T02:31:36;4.40;42.40
11387;DHT22;5748;53.102;8.456;2023-04-03T02:34:03;4.40;42.40
11387;DHT22;5748;53.102;8.456;2023-04-03T02:36:49;4.40;42.40
11387;DHT22;5748;53.102;8.456;2023-04-03T02:39:18;4.40;43.20
11387;DHT22;5748;53.102;8.456;2023-04-03T02:41:45;4.40;42.50
11387;DHT22;5748;53.102;8.456;2023-04-03T02:44:12;4.30;43.00
11387;DHT22;5748;53.102;8.456;2023-04-03T02:46:40;4.30;42.50
11387;DHT22;5748;53.102;8.456;2023-04-03T02:49:07;4.30;42.50
11387;DHT22;5748;53.102;8.456;2023-04-03T02:51:34;4.30;42.50
11387;DHT22;5748;53.102;8.456;2023-04-03T02:54:01;4.50;42.70
11387;DHT22;5748;53.102;8.456;2023-04-03T02:56:29;4.20;42.50
11387;DHT22;5748;53.102;8.456;2023-04-03T02:59:25;4.20;42.60
11387;DHT22;5748;53.102;8.456;2023-04-03T03:01:52;4.20;43.50
11387;DHT22;5748;53.102;8.456;2023-04-03T03:04:19;4.20;42.60
11387;DHT22;5748;53.102;8.456;2023-04-03T03:06:47;4.10;42.60
11387;DHT22;5748;53.102;8.456;2023-04-03T03:09:14;4.10;42.60
11387;DHT22;5748;53.102;8.456;2023-04-03T03:11:43;4.10;42.50
11387;DHT22;5748;53.102;8.456;2023-04-03T03:14:10;4.10;42.60
11387;DHT22;5748;53.102;8.456;2023-04-03T03:16:37;4.10;42.50
11387;DHT22;5748;53.102;8.456;2023-04-03T03:19:04;5.60;43.80
11387;DHT22;5748;53.102;8.456;2023-04-03T03:21:32;4.00;42.50
11387;DHT22;5748;53.102;8.456;2023-04-03T03:23:59;4.00;42.50
11387;DHT22;5748;53.102;8.456;2023-04-03T03:26:26;4.00;43.20
11387;DHT22;5748;53.102;8.456;2023-04-03T03:28:55;3.90;42.60
11387;DHT22;5748;53.102;8.456;2023-04-03T03:31:22;4.00;42.60
11387;DHT22;5748;53.102;8.456;2023-04-03T03:33:49;3.90;42.50
11387;DHT22;5748;53.102;8.456;2023-04-03T03:36:16;3.90;42.50
11387;DHT22;5748;53.102;8.456;2023-04-03T03:38:43;3.90;42.40
11387;DHT22;5748;53.102;8.456;2023-04-03T03:41:10;3.80;42.40
11387;DHT22;5748;53.102;8.456;2023-04-03T03:43:37;3.80;42.40
11387;DHT22;5748;53.102;8.456;2023-04-03T03:46:05;3.80;43.00
11387;DHT22;5748;53.102;8.456;2023-04-03T03:48:32;3.80;42.50
11387;DHT22;5748;53.102;8.456;2023-04-03T03:50:59;3.70;42.40
11387;DHT22;5748;53.102;8.456;2023-04-03T03:53:29;3.70;42.40
11387;DHT22;5748;53.102;8.456;2023-04-03T03:55:56;3.70;42.50
11387;DHT22;5748;53.102;8.456;2023-04-03T03:58:23;3.70;42.40
11387;DHT22;5748;53.102;8.456;2023-04-03T04:00:50;5.60;44.00
11387;DHT22;5748;53.102;8.456;2023-04-03T04:03:18;5.20;44.40
11387;DHT22;5748;53.102;8.456;2023-04-03T04:05:46;5.30;44.00
11387;DHT22;5748;53.102;8.456;2023-04-03T04:08:13;3.60;42.60
11387;DHT22;5748;53.102;8.456;2023-04-03T04:10:40;3.60;42.60
11387;DHT22;5748;53.102;8.456;2023-04-03T04:13:13;3.50;42.50
11387;DHT22;5748;53.102;8.456;2023-04-03T04:15:40;3.50;42.80
11387;DHT22;5748;53.102;8.456;2023-04-03T04:18:07;5.60;44.30
11387;DHT22;5748;53.102;8.456;2023-04-03T04:20:36;3.50;42.60
11387;DHT22;5748;53.102;8.456;2023-04-03T04:23:03;3.40;42.60
11387;DHT22;5748;53.102;8.456;2023-04-03T04:25:30;3.40;42.70
11387;DHT22;5748;53.102;8.456;2023-04-03T04:27:57;3.40;42.70
11387;DHT22;5748;53.102;8.456;2023-04-03T04:30:24;3.40;42.60
11387;DHT22;5748;53.102;8.456;2023-04-03T04:32:51;5.70;44.40
11387;DHT22;5748;53.102;8.456;2023-04-03T04:35:24;5.10;44.00
11387;DHT22;5748;53.102;8.456;2023-04-03T04:37:52;3.30;43.00
11387;DHT22;5748;53.102;8.456;2023-04-03T04:40:20;3.30;42.80
11387;DHT22;5748;53.102;8.456;2023-04-03T04:42:47;3.30;42.80
11387;DHT22;5748;53.102;8.456;2023-04-03T04:45:14;3.30;42.90
11387;DHT22;5748;53.102;8.456;2023-04-03T04:47:49;3.30;42.90
11387;DHT22;5748;53.102;8.456;2023-04-03T04:50:18;3.20;43.10
11387;DHT22;5748;53.102;8.456;2023-04-03T04:52:45;3.30;42.90
11387;DHT22;5748;53.102;8.456;2023-04-03T04:55:13;3.20;42.80
11387;DHT22;5748;53.102;8.456;2023-04-03T04:57:53;4.20;43.90
11387;DHT22;5748;53.102;8.456;2023-04-03T05:00:20;3.20;43.40
11387;DHT22;5748;53.102;8.456;2023-04-03T05:02:48;3.20;43.30
11387;DHT22;5748;53.102;8.456;2023-04-03T05:08:27;3.20;44.30
11387;DHT22;5748;53.102;8.456;2023-04-03T05:10:58;3.20;43.40
11387;DHT22;5748;53.102;8.456;2023-04-03T05:13:25;4.60;44.60
11387;DHT22;5748;53.102;8.456;2023-04-03T05:15:52;3.20;43.60
11387;DHT22;5748;53.102;8.456;2023-04-03T05:18:19;3.60;44.40
11387;DHT22;5748;53.102;8.456;2023-04-03T05:20:48;3.20;43.70
11387;DHT22;5748;53.102;8.456;2023-04-03T05:23:15;3.20;44.00
11387;DHT22;5748;53.102;8.456;2023-04-03T05:25:43;3.20;44.00
11387;DHT22;5748;53.102;8.456;2023-04-03T05:28:12;3.20;44.10
11387;DHT22;5748;53.102;8.456;2023-04-03T05:30:39;3.20;44.20
11387;DHT22;5748;53.102;8.456;2023-04-03T05:33:06;3.20;44.20
11387;DHT22;5748;53.102;8.456;2023-04-03T05:35:33;3.20;44.20
11387;DHT22;5748;53.102;8.456;2023-04-03T05:38:03;3.20;44.30
11387;DHT22;5748;53.102;8.456;2023-04-03T05:40:29;3.20;44.30
11387;DHT22;5748;53.102;8.456;2023-04-03T05:42:57;3.20;44.30
11387;DHT22;5748;53.102;8.456;2023-04-03T05:45:25;3.30;44.40
11387;DHT22;5748;53.102;8.456;2023-04-03T05:47:52;3.30;44.50
11387;DHT22;5748;53.102;8.456;2023-04-03T05:50:19;3.30;44.60
11387;DHT22;5748;53.102;8.456;2023-04-03T05:52:49;3.30;44.70
11387;DHT22;5748;53.102;8.456;2023-04-03T05:55:17;3.30;44.80
11387;DHT22;5748;53.102;8.456;2023-04-03T05:57:44;3.40;44.80
11387;DHT22;5748;53.102;8.456;2023-04-03T06:00:13;3.40;45.00
11387;DHT22;5748;53.102;8.456;2023-04-03T06:02:43;3.40;45.10
11387;DHT22;5748;53.102;8.456;2023-04-03T06:05:10;3.40;45.20
11387;DHT22;5748;53.102;8.456;2023-04-03T06:07:38;3.50;45.10
11387;DHT22;5748;53.102;8.456;2023-04-03T06:10:07;3.50;45.10
11387;DHT22;5748;53.102;8.456;2023-04-03T06:12:35;3.50;45.10
11387;DHT22;5748;53.102;8.456;2023-04-03T06:15:02;3.80;45.20
11387;DHT22;5748;53.102;8.456;2023-04-03T06:17:30;3.60;45.20
11387;DHT22;5748;53.102;8.456;2023-04-03T06:19:58;3.60;45.20
11387;DHT22;5748;53.102;8.456;2023-04-03T06:22:25;3.70;45.40
11387;DHT22;5748;53.102;8.456;2023-04-03T06:24:55;3.70;45.40
11387;DHT22;5748;53.102;8.456;2023-04-03T06:27:22;3.80;45.50
11387;DHT22;5748;53.102;8.456;2023-04-03T06:29:49;3.90;45.80
11387;DHT22;5748;53.102;8.456;2023-04-03T06:32:16;4.00;45.80
11387;DHT22;5748;53.102;8.456;2023-04-03T06:34:50;4.10;46.10
11387;DHT22;5748;53.102;8.456;2023-04-03T06:37:22;4.20;46.40
11387;DHT22;5748;53.102;8.456;2023-04-03T06:39:51;4.30;46.30
11387;DHT22;5748;53.102;8.456;2023-04-03T06:42:18;4.40;46.40
11387;DHT22;5748;53.102;8.456;2023-04-03T06:44:51;4.60;46.50
11387;DHT22;5748;53.102;8.456;2023-04-03T06:47:18;4.70;47.10
11387;DHT22;5748;53.102;8.456;2023-04-03T06:49:45;4.90;46.80
11387;DHT22;5748;53.102;8.456;2023-04-03T06:52:13;5.00;46.90
11387;DHT22;5748;53.102;8.456;2023-04-03T06:54:47;5.20;47.00
11387;DHT22;5748;53.102;8.456;2023-04-03T06:57:14;5.30;47.90
11387;DHT22;5748;53.102;8.456;2023-04-03T06:59:41;5.50;47.10
11387;DHT22;5748;53.102;8.456;2023-04-03T07:02:10;5.70;47.60
11387;DHT22;5748;53.102;8.456;2023-04-03T07:04:38;5.80;47.30
11387;DHT22;5748;53.102;8.456;2023-04-03T07:07:05;6.10;47.70
11387;DHT22;5748;53.102;8.456;2023-04-03T07:09:33;6.30;48.00
11387;DHT22;5748;53.102;8.456;2023-04-03T07:12:01;6.40;47.40
11387;DHT22;5748;53.102;8.456;2023-04-03T07:14:28;6.60;47.60
11387;DHT22;5748;53.102;8.456;2023-04-03T07:16:56;6.80;47.10
11387;DHT22;5748;53.102;8.456;2023-04-03T07:19:23;7.10;47.30
11387;DHT22;5748;53.102;8.456;2023-04-03T07:21:58;7.20;47.00
11387;DHT22;5748;53.102;8.456;2023-04-03T07:24:25;8.00;47.90
11387;DHT22;5748;53.102;8.456;2023-04-03T07:26:53;7.50;47.10
11387;DHT22;5748;53.102;8.456;2023-04-03T07:29:28;8.20;47.40
11387;DHT22;5748;53.102;8.456;2023-04-03T07:31:56;7.90;47.10
11387;DHT22;5748;53.102;8.456;2023-04-03T07:34:23;8.10;47.20
11387;DHT22;5748;53.102;8.456;2023-04-03T07:36:50;8.30;47.30
11387;DHT22;5748;53.102;8.456;2023-04-03T07:39:17;8.50;47.30
11387;DHT22;5748;53.102;8.456;2023-04-03T07:41:44;8.70;47.30
11387;DHT22;5748;53.102;8.456;2023-04-03T07:44:11;9.00;47.50
11387;DHT22;5748;53.102;8.456;2023-04-03T07:46:40;9.20;47.70
11387;DHT22;5748;53.102;8.456;2023-04-03T07:49:07;9.50;47.40
11387;DHT22;5748;53.102;8.456;2023-04-03T07:51:35;9.80;47.30
11387;DHT22;5748;53.102;8.456;2023-04-03T07:54:02;10.10;46.40
11387;DHT22;5748;53.102;8.456;2023-04-03T07:56:29;10.40;46.50
11387;DHT22;5748;53.102;8.456;2023-04-03T07:58:56;10.60;46.10
11387;DHT22;5748;53.102;8.456;2023-04-03T08:01:23;10.90;46.50
11387;DHT22;5748;53.102;8.456;2023-04-03T08:03:51;11.30;46.00
11387;DHT22;5748;53.102;8.456;2023-04-03T08:06:18;11.70;45.30
11387;DHT22;5748;53.102;8.456;2023-04-03T08:08:45;12.10;45.70
11387;DHT22;5748;53.102;8.456;2023-04-03T08:11:12;12.60;46.80
11387;DHT22;5748;53.102;8.456;2023-04-03T08:13:40;13.00;46.50
11387;DHT22;5748;53.102;8.456;2023-04-03T08:16:10;13.60;46.60
11387;DHT22;5748;53.102;8.456;2023-04-03T08:18:39;14.10;46.80
11387;DHT22;5748;53.102;8.456;2023-04-03T08:21:09;14.60;46.40
11387;DHT22;5748;53.102;8.456;2023-04-03T08:23:36;15.20;46.20
11387;DHT22;5748;53.102;8.456;2023-04-03T08:26:08;15.70;47.00
11387;DHT22;5748;53.102;8.456;2023-04-03T08:28:37;16.30;46.60
11387;DHT22;5748;53.102;8.456;2023-04-03T08:31:06;16.80;45.00
11387;DHT22;5748;53.102;8.456;2023-04-03T08:33:37;17.30;45.80
11387;DHT22;5748;53.102;8.456;2023-04-03T08:36:05;17.80;46.20
11387;DHT22;5748;53.102;8.456;2023-04-03T08:38:41;18.30;44.00
11387;DHT22;5748;53.102;8.456;2023-04-03T08:41:14;18.70;44.10
11387;DHT22;5748;53.102;8.456;2023-04-03T08:43:56;19.20;43.40
11387;DHT22;5748;53.102;8.456;2023-04-03T08:46:32;19.60;42.30
11387;DHT22;5748;53.102;8.456;2023-04-03T08:49:06;20.00;44.60
11387;DHT22;5748;53.102;8.456;2023-04-03T08:51:41;20.50;44.70
11387;DHT22;5748;53.102;8.456;2023-04-03T08:54:21;21.00;43.60
11387;DHT22;5748;53.102;8.456;2023-04-03T08:56:53;21.30;41.10
11387;DHT22;5748;53.102;8.456;2023-04-03T08:59:27;21.70;41.20
11387;DHT22;5748;53.102;8.456;2023-04-03T09:01:57;22.00;40.40
11387;DHT22;5748;53.102;8.456;2023-04-03T09:04:28;22.20;41.30
11387;DHT22;5748;53.102;8.456;2023-04-03T09:07:03;22.40;41.00
11387;DHT22;5748;53.102;8.456;2023-04-03T09:09:40;22.60;39.20
11387;DHT22;5748;53.102;8.456;2023-04-03T09:12:17;22.80;41.00
11387;DHT22;5748;53.102;8.456;2023-04-03T09:14:51;23.00;38.60
11387;DHT22;5748;53.102;8.456;2023-04-03T09:17:31;23.30;40.80
11387;DHT22;5748;53.102;8.456;2023-04-03T09:20:14;23.60;38.10
11387;DHT22;5748;53.102;8.456;2023-04-03T09:22:47;23.80;35.70
11387;DHT22;5748;53.102;8.456;2023-04-03T09:25:19;23.90;37.90
11387;DHT22;5748;53.102;8.456;2023-04-03T09:27:48;24.20;37.90
11387;DHT22;5748;53.102;8.456;2023-04-03T09:30:16;24.30;40.10
11387;DHT22;5748;53.102;8.456;2023-04-03T09:32:46;24.50;38.90
11387;DHT22;5748;53.102;8.456;2023-04-03T09:35:21;24.80;39.70
11387;DHT22;5748;53.102;8.456;2023-04-03T09:37:52;25.10;39.20
11387;DHT22;5748;53.102;8.456;2023-04-03T09:40:34;25.40;38.60
11387;DHT22;5748;53.102;8.456;2023-04-03T09:43:28;25.70;36.80
11387;DHT22;5748;53.102;8.456;2023-04-03T09:46:15;26.10;34.10
11387;DHT22;5748;53.102;8.456;2023-04-03T09:48:50;26.30;36.70
11387;DHT22;5748;53.102;8.456;2023-04-03T09:51:18;26.60;35.80
11387;DHT22;5748;53.102;8.456;2023-04-03T09:53:47;26.70;37.10
11387;DHT22;5748;53.102;8.456;2023-04-03T09:56:23;26.90;36.30
11387;DHT22;5748;53.102;8.456;2023-04-03T09:59:07;27.20;34.70
11387;DHT22;5748;53.102;8.456;2023-04-03T10:01:42;27.30;34.20
11387;DHT22;5748;53.102;8.456;2023-04-03T10:04:12;27.50;35.30
11387;DHT22;5748;53.102;8.456;2023-04-03T10:06:42;27.60;34.70
11387;DHT22;5748;53.102;8.456;2023-04-03T10:09:32;27.70;34.80
11387;DHT22;5748;53.102;8.456;2023-04-03T10:12:02;27.80;32.40
11387;DHT22;5748;53.102;8.456;2023-04-03T10:14:32;27.90;33.90
11387;DHT22;5748;53.102;8.456;2023-04-03T10:17:13;27.90;33.70
11387;DHT22;5748;53.102;8.456;2023-04-03T10:19:46;28.00;31.40
11387;DHT22;5748;53.102;8.456;2023-04-03T10:22:20;28.00;33.20
11387;DHT22;5748;53.102;8.456;2023-04-03T10:25:03;28.10;32.10
11387;DHT22;5748;53.102;8.456;2023-04-03T10:27:39;28.10;28.20
11387;DHT22;5748;53.102;8.456;2023-04-03T10:30:21;28.20;31.20
11387;DHT22;5748;53.102;8.456;2023-04-03T10:33:05;28.20;31.60
11387;DHT22;5748;53.102;8.456;2023-04-03T10:35:44;28.30;31.30
11387;DHT22;5748;53.102;8.456;2023-04-03T10:38:21;28.30;30.90
11387;DHT22;5748;53.102;8.456;2023-04-03T10:40:57;28.30;30.90
11387;DHT22;5748;53.102;8.456;2023-04-03T10:43:33;28.30;30.00
11387;DHT22;5748;53.102;8.456;2023-04-03T10:46:06;28.30;30.00
11387;DHT22;5748;53.102;8.456;2023-04-03T10:48:43;28.40;30.30
11387;DHT22;5748;53.102;8.456;2023-04-03T10:51:25;28.40;30.90
11387;DHT22;5748;53.102;8.456;2023-04-03T10:53:58;28.40;30.40
11387;DHT22;5748;53.102;8.456;2023-04-03T10:56:35;28.50;30.40
11387;DHT22;5748;53.102;8.456;2023-04-03T10:59:20;28.50;29.30
11387;DHT22;5748;53.102;8.456;2023-04-03T11:01:54;28.50;29.30
11387;DHT22;5748;53.102;8.456;2023-04-03T11:04:26;28.50;29.10
11387;DHT22;5748;53.102;8.456;2023-04-03T11:06:57;28.40;29.40
11387;DHT22;5748;53.102;8.456;2023-04-03T11:09:28;28.40;29.10
11387;DHT22;5748;53.102;8.456;2023-04-03T11:12:01;28.40;29.20
11387;DHT22;5748;53.102;8.456;2023-04-03T11:14:34;28.30;28.90
11387;DHT22;5748;53.102;8.456;2023-04-03T11:17:11;28.40;29.40
11387;DHT22;5748;53.102;8.456;2023-04-03T11:19:51;28.50;29.20
11387;DHT22;5748;53.102;8.456;2023-04-03T11:22:27;28.60;29.60
11387;DHT22;5748;53.102;8.456;2023-04-03T11:25:03;28.70;29.70
11387;DHT22;5748;53.102;8.456;2023-04-03T11:27:37;28.90;28.60
11387;DHT22;5748;53.102;8.456;2023-04-03T11:30:14;29.00;29.20
11387;DHT22;5748;53.102;8.456;2023-04-03T11:33:03;29.20;28.90
11387;DHT22;5748;53.102;8.456;2023-04-03T11:35:37;29.40;28.20
11387;DHT22;5748;53.102;8.456;2023-04-03T11:38:05;29.60;29.20
11387;DHT22;5748;53.102;8.456;2023-04-03T11:40:34;29.80;28.20
11387;DHT22;5748;53.102;8.456;2023-04-03T11:43:06;30.10;29.40
11387;DHT22;5748;53.102;8.456;2023-04-03T11:45:40;30.40;29.00
11387;DHT22;5748;53.102;8.456;2023-04-03T11:48:50;30.80;29.20
11387;DHT22;5748;53.102;8.456;2023-04-03T11:51:52;31.30;28.00
11387;DHT22;5748;53.102;8.456;2023-04-03T11:54:43;31.80;25.20
11387;DHT22;5748;53.102;8.456;2023-04-03T11:57:49;32.20;26.80
11387;DHT22;5748;53.102;8.456;2023-04-03T12:00:51;32.50;24.20
11387;DHT22;5748;53.102;8.456;2023-04-03T12:03:57;32.80;26.70
11387;DHT22;5748;53.102;8.456;2023-04-03T12:06:59;33.00;26.40
11387;DHT22;5748;53.102;8.456;2023-04-03T12:10:02;33.30;25.80
11387;DHT22;5748;53.102;8.456;2023-04-03T12:12:56;33.40;24.80
11387;DHT22;5748;53.102;8.456;2023-04-03T12:15:52;33.60;25.90
11387;DHT22;5748;53.102;8.456;2023-04-03T12:18:42;33.90;25.20
11387;DHT22;5748;53.102;8.456;2023-04-03T12:21:10;34.10;22.00
11387;DHT22;5748;53.102;8.456;2023-04-03T12:23:58;34.30;26.40
11387;DHT22;5748;53.102;8.456;2023-04-03T12:26:34;34.40;25.00
11387;DHT22;5748;53.102;8.456;2023-04-03T12:29:13;34.50;25.60
11387;DHT22;5748;53.102;8.456;2023-04-03T12:31:50;34.50;24.70
11387;DHT22;5748;53.102;8.456;2023-04-03T12:34:38;34.50;25.00
11387;DHT22;5748;53.102;8.456;2023-04-03T12:37:24;34.50;24.60
11387;DHT22;5748;53.102;8.456;2023-04-03T12:40:14;34.50;24.00
11387;DHT22;5748;53.102;8.456;2023-04-03T12:43:06;34.60;25.10
11387;DHT22;5748;53.102;8.456;2023-04-03T12:45:42;34.70;24.10
11387;DHT22;5748;53.102;8.456;2023-04-03T12:48:15;34.90;25.60
11387;DHT22;5748;53.102;8.456;2023-04-03T12:50:46;35.10;24.40
11387;DHT22;5748;53.102;8.456;2023-04-03T12:53:16;35.20;24.70
11387;DHT22;5748;53.102;8.456;2023-04-03T12:55:45;35.30;25.00
11387;DHT22;5748;53.102;8.456;2023-04-03T12:58:16;35.40;25.00
11387;DHT22;5748;53.102;8.456;2023-04-03T13:00:58;35.40;24.50
11387;DHT22;5748;53.102;8.456;2023-04-03T13:03:39;35.60;22.10
11387;DHT22;5748;53.102;8.456;2023-04-03T13:06:10;35.60;23.80
11387;DHT22;5748;53.102;8.456;2023-04-03T13:08:49;35.70;23.70
11387;DHT22;5748;53.102;8.456;2023-04-03T13:11:18;35.60;22.50
11387;DHT22;5748;53.102;8.456;2023-04-03T13:14:00;35.50;24.10
11387;DHT22;5748;53.102;8.456;2023-04-03T13:16:31;35.40;23.20
11387;DHT22;5748;53.102;8.456;2023-04-03T13:19:00;35.40;24.20
11387;DHT22;5748;53.102;8.456;2023-04-03T13:21:29;35.40;23.70
11387;DHT22;5748;53.102;8.456;2023-04-03T13:23:59;35.00;23.30
11387;DHT22;5748;53.102;8.456;2023-04-03T13:26:31;34.60;23.10
11387;DHT22;5748;53.102;8.456;2023-04-03T13:29:02;34.10;22.50
11387;DHT22;5748;53.102;8.456;2023-04-03T13:31:32;33.60;21.90
11387;DHT22;5748;53.102;8.456;2023-04-03T13:34:06;32.90;22.00
11387;DHT22;5748;53.102;8.456;2023-04-03T13:36:38;32.00;21.40
11387;DHT22;5748;53.102;8.456;2023-04-03T13:39:07;31.20;22.20
11387;DHT22;5748;53.102;8.456;2023-04-03T13:41:49;30.50;22.40
11387;DHT22;5748;53.102;8.456;2023-04-03T13:44:29;29.90;22.40
11387;DHT22;5748;53.102;8.456;2023-04-03T13:47:00;29.40;21.30
11387;DHT22;5748;53.102;8.456;2023-04-03T13:49:43;28.90;23.10
11387;DHT22;5748;53.102;8.456;2023-04-03T13:52:24;28.60;23.50
11387;DHT22;5748;53.102;8.456;2023-04-03T13:54:56;28.20;22.50
11387;DHT22;5748;53.102;8.456;2023-04-03T13:57:26;27.80;22.60
11387;DHT22;5748;53.102;8.456;2023-04-03T13:59:53;27.30;22.40
11387;DHT22;5748;53.102;8.456;2023-04-03T14:02:22;26.80;22.90
11387;DHT22;5748;53.102;8.456;2023-04-03T14:04:58;26.40;23.70
11387;DHT22;5748;53.102;8.456;2023-04-03T14:07:28;26.10;23.80
11387;DHT22;5748;53.102;8.456;2023-04-03T14:09:56;25.80;23.70
11387;DHT22;5748;53.102;8.456;2023-04-03T14:12:27;25.60;23.60
11387;DHT22;5748;53.102;8.456;2023-04-03T14:14:57;25.20;23.00
11387;DHT22;5748;53.102;8.456;2023-04-03T14:17:25;24.90;22.90
11387;DHT22;5748;53.102;8.456;2023-04-03T14:19:54;24.50;23.20
11387;DHT22;5748;53.102;8.456;2023-04-03T14:22:25;24.20;23.50
11387;DHT22;5748;53.102;8.456;2023-04-03T14:24:54;24.00;23.80
11387;DHT22;5748;53.102;8.456;2023-04-03T14:27:24;23.70;23.80
11387;DHT22;5748;53.102;8.456;2023-04-03T14:29:55;23.40;23.50
11387;DHT22;5748;53.102;8.456;2023-04-03T14:32:24;23.10;23.50
11387;DHT22;5748;53.102;8.456;2023-04-03T14:34:53;22.80;23.10
11387;DHT22;5748;53.102;8.456;2023-04-03T14:37:24;22.50;23.10
11387;DHT22;5748;53.102;8.456;2023-04-03T14:39:54;22.10;23.10
11387;DHT22;5748;53.102;8.456;2023-04-03T14:42:25;21.80;23.20
11387;DHT22;5748;53.102;8.456;2023-04-03T14:44:53;21.60;23.50
11387;DHT22;5748;53.102;8.456;2023-04-03T14:47:22;21.40;23.70
11387;DHT22;5748;53.102;8.456;2023-04-03T14:49:51;21.40;24.10
11387;DHT22;5748;53.102;8.456;2023-04-03T14:52:22;21.30;24.20
11387;DHT22;5748;53.102;8.456;2023-04-03T14:54:50;21.30;24.50
11387;DHT22;5748;53.102;8.456;2023-04-03T14:57:18;21.40;24.50
11387;DHT22;5748;53.102;8.456;2023-04-03T14:59:46;21.40;24.30
11387;DHT22;5748;53.102;8.456;2023-04-03T15:02:28;21.40;24.20
11387;DHT22;5748;53.102;8.456;2023-04-03T15:04:57;21.40;23.80
11387;DHT22;5748;53.102;8.456;2023-04-03T15:07:29;21.30;24.00
11387;DHT22;5748;53.102;8.456;2023-04-03T15:09:58;21.10;23.90
11387;DHT22;5748;53.102;8.456;2023-04-03T15:12:26;21.00;24.00
11387;DHT22;5748;53.102;8.456;2023-04-03T15:14:53;21.00;24.10
11387;DHT22;5748;53.102;8.456;2023-04-03T15:17:22;21.00;24.20
11387;DHT22;5748;53.102;8.456;2023-04-03T15:19:49;20.80;24.00
11387;DHT22;5748;53.102;8.456;2023-04-03T15:22:19;20.70;23.60
11387;DHT22;5748;53.102;8.456;2023-04-03T15:24:47;20.60;23.80
11387;DHT22;5748;53.102;8.456;2023-04-03T15:27:15;20.40;23.60
11387;DHT22;5748;53.102;8.456;2023-04-03T15:29:43;20.20;23.60
11387;DHT22;5748;53.102;8.456;2023-04-03T15:32:10;19.90;23.60
11387;DHT22;5748;53.102;8.456;2023-04-03T15:34:38;19.70;23.70
11387;DHT22;5748;53.102;8.456;2023-04-03T15:37:06;19.40;24.00
11387;DHT22;5748;53.102;8.456;2023-04-03T15:39:33;19.20;24.40
11387;DHT22;5748;53.102;8.456;2023-04-03T15:42:01;19.00;24.60
11387;DHT22;5748;53.102;8.456;2023-04-03T15:44:31;18.80;24.60
11387;DHT22;5748;53.102;8.456;2023-04-03T15:46:59;18.70;24.70
11387;DHT22;5748;53.102;8.456;2023-04-03T15:49:28;18.60;24.70
11387;DHT22;5748;53.102;8.456;2023-04-03T15:51:56;18.50;24.50
11387;DHT22;5748;53.102;8.456;2023-04-03T15:54:23;18.30;24.30
11387;DHT22;5748;53.102;8.456;2023-04-03T15:56:52;18.20;24.30
11387;DHT22;5748;53.102;8.456;2023-04-03T15:59:20;17.90;24.20
11387;DHT22;5748;53.102;8.456;2023-04-03T16:01:48;17.80;24.20
11387;DHT22;5748;53.102;8.456;2023-04-03T16:04:15;17.60;24.10
11387;DHT22;5748;53.102;8.456;2023-04-03T16:06:43;17.40;24.20
11387;DHT22;5748;53.102;8.456;2023-04-03T16:09:10;17.10;24.10
11387;DHT22;5748;53.102;8.456;2023-04-03T16:11:38;17.00;24.20
11387;DHT22;5748;53.102;8.456;2023-04-03T16:14:05;16.80;24.20
11387;DHT22;5748;53.102;8.456;2023-04-03T16:16:35;16.60;24.30
11387;DHT22;5748;53.102;8.456;2023-04-03T16:19:03;16.50;24.40
11387;DHT22;5748;53.102;8.456;2023-04-03T16:21:31;16.30;24.40
11387;DHT22;5748;53.102;8.456;2023-04-03T16:23:59;16.10;24.60
11387;DHT22;5748;53.102;8.456;2023-04-03T16:26:27;15.90;24.70
11387;DHT22;5748;53.102;8.456;2023-04-03T16:28:55;15.80;24.70